Meadow Summit, North Carolina
Current Conditions -  °F | °C
As of 10:35 PM on Wednesday 22 Oct 2014 (Local Time) from KSIF Reporting Station
Clear Clear  
Wind Chill: 47°   Ceiling: Unl
Heat Index: 47°   Visibility: 10mi
Dew Point: 41°   Wind: 3mph
Humidity: 80%   Direction: 320°NW
Pressure: 30.08"   Gusts: NA
Location:  36.5114°N, 79.7844°W
Report Text: KSIF 230235Z AUTO 32003KT 10SM CLR 08/05 A3008 RMK AO2 T00830050
Loading
Personal Weather Stations






























Interactive Weather Map
Tropical Storm Tracking
New forecast layout! Learn more

10-Day Weather Forecast

Advertisements
Track Severe Weather on mobile